createdAt,value
2023-03-04T00:00:57.525Z,7.28
2023-03-04T00:03:24.241Z,7.27
2023-03-04T00:05:50.810Z,7.51
2023-03-04T00:08:17.394Z,7.28
2023-03-04T00:10:44.187Z,7.26
2023-03-04T00:13:10.629Z,7.49
2023-03-04T00:15:37.241Z,7.28
2023-03-04T00:18:03.973Z,7.27
2023-03-04T00:20:30.518Z,7.26
2023-03-04T00:22:57.049Z,7.28
2023-03-04T00:25:23.617Z,7.28
2023-03-04T00:27:50.219Z,7.28
2023-03-04T00:30:17.072Z,7.30
2023-03-04T00:32:43.663Z,7.56
2023-03-04T00:35:10.344Z,7.37
2023-03-04T00:37:36.966Z,7.35
2023-03-04T00:40:04.072Z,7.38
2023-03-04T00:42:30.640Z,7.37
2023-03-04T00:44:57.228Z,7.40
2023-03-04T00:47:26.131Z,7.43
2023-03-04T00:49:52.682Z,7.44
2023-03-04T00:52:19.302Z,7.45
2023-03-04T00:54:46.117Z,7.49
2023-03-04T00:57:12.659Z,7.74
2023-03-04T00:59:40.817Z,7.55
2023-03-04T01:02:07.452Z,7.55
2023-03-04T01:04:34.020Z,7.57
2023-03-04T01:07:00.757Z,7.58
2023-03-04T01:09:27.484Z,7.60
2023-03-04T01:11:54.170Z,7.62
2023-03-04T01:14:20.833Z,7.63
2023-03-04T01:16:48.999Z,7.64
2023-03-04T01:19:16.179Z,7.63
2023-03-04T01:21:42.896Z,7.66
2023-03-04T01:24:09.470Z,7.67
2023-03-04T01:26:36.103Z,7.69
2023-03-04T01:29:03.456Z,7.71
2023-03-04T01:31:30.202Z,7.72
2023-03-04T01:33:56.756Z,7.98
2023-03-04T01:36:23.370Z,7.77
2023-03-04T01:38:49.944Z,7.77
2023-03-04T01:41:19.482Z,7.79
2023-03-04T01:43:46.068Z,7.77
2023-03-04T01:46:15.209Z,7.78
2023-03-04T01:48:42.253Z,7.79
2023-03-04T01:51:14.268Z,7.83
2023-03-04T01:53:41.020Z,7.81
2023-03-04T01:56:13.651Z,8.07
2023-03-04T01:58:40.310Z,7.88
2023-03-04T02:01:06.882Z,7.87
2023-03-04T02:03:33.454Z,7.87
2023-03-04T02:06:02.714Z,7.88
2023-03-04T02:08:29.414Z,7.88
2023-03-04T02:11:01.860Z,7.90
2023-03-04T02:13:28.526Z,7.89
2023-03-04T02:15:55.206Z,7.90
2023-03-04T02:18:24.901Z,7.93
2023-03-04T02:20:54.404Z,7.92
2023-03-04T02:23:45.352Z,8.01
2023-03-04T02:26:18.403Z,7.98
2023-03-04T02:28:45.756Z,7.94
2023-03-04T02:31:30.270Z,8.02
2023-03-04T02:34:00.426Z,7.98
2023-03-04T02:36:28.293Z,7.98
2023-03-04T02:38:55.999Z,7.98
2023-03-04T02:41:26.334Z,8.01
2023-03-04T02:43:55.093Z,8.02
2023-03-04T02:46:21.831Z,8.01
2023-03-04T02:48:48.722Z,8.27
2023-03-04T02:51:15.430Z,8.07
2023-03-04T02:53:42.049Z,8.07
2023-03-04T02:56:08.816Z,8.07
2023-03-04T02:58:35.289Z,8.32
2023-03-04T03:01:01.867Z,8.10
2023-03-04T03:03:28.579Z,8.10
2023-03-04T03:05:55.305Z,8.10
2023-03-04T03:08:21.905Z,8.10
2023-03-04T03:10:48.449Z,8.11
2023-03-04T03:13:15.041Z,8.13
2023-03-04T03:15:42.542Z,8.13
2023-03-04T03:18:10.972Z,8.13
2023-03-04T03:20:37.812Z,8.15
2023-03-04T03:23:04.369Z,8.41
2023-03-04T03:25:31.096Z,8.21
2023-03-04T03:27:57.573Z,8.44
2023-03-04T03:30:24.128Z,8.24
2023-03-04T03:32:50.849Z,8.23
2023-03-04T03:35:17.483Z,8.24
2023-03-04T03:37:44.140Z,8.23
2023-03-04T03:40:11.856Z,8.24
2023-03-04T03:42:38.420Z,8.23
2023-03-04T03:45:05.410Z,8.27
2023-03-04T03:47:32.034Z,8.26
2023-03-04T03:49:58.592Z,8.28
2023-03-04T03:52:25.329Z,8.30
2023-03-04T03:54:51.960Z,8.29
2023-03-04T03:57:18.541Z,8.32
2023-03-04T03:59:45.152Z,8.33
2023-03-04T04:02:11.739Z,8.34
2023-03-04T04:04:38.286Z,8.32
2023-03-04T04:07:04.864Z,8.35
2023-03-04T04:09:31.486Z,8.35
2023-03-04T04:11:58.283Z,8.37
2023-03-04T04:14:24.803Z,8.62
2023-03-04T04:19:24.960Z,8.38
2023-03-04T04:21:51.421Z,8.63
2023-03-04T04:24:19.612Z,8.42
2023-03-04T04:26:46.302Z,8.40
2023-03-04T04:29:14.776Z,8.41
2023-03-04T04:31:41.313Z,8.39
2023-03-04T04:34:07.842Z,8.39
2023-03-04T04:36:34.421Z,8.42
2023-03-04T04:39:00.963Z,8.41
2023-03-04T04:41:31.970Z,8.44
2023-03-04T04:43:58.388Z,8.40
2023-03-04T04:46:24.918Z,8.44
2023-03-04T04:48:51.453Z,8.44
2023-03-04T04:51:18.156Z,8.45
2023-03-04T04:53:44.912Z,8.46
2023-03-04T04:56:12.853Z,8.71
2023-03-04T04:58:39.628Z,8.49
2023-03-04T05:01:06.236Z,8.72
2023-03-04T05:03:34.561Z,8.51
2023-03-04T05:06:01.461Z,8.46
2023-03-04T05:08:27.973Z,8.47
2023-03-04T05:10:54.533Z,8.47
2023-03-04T05:13:21.197Z,8.47
2023-03-04T05:15:48.237Z,8.46
2023-03-04T05:18:14.712Z,8.46
2023-03-04T05:20:41.192Z,8.47
2023-03-04T05:23:07.648Z,8.47
2023-03-04T05:25:34.160Z,8.47
2023-03-04T05:28:02.369Z,8.47
2023-03-04T05:30:28.846Z,8.44
2023-03-04T05:32:55.265Z,8.45
2023-03-04T05:35:21.823Z,8.46
2023-03-04T05:37:48.421Z,8.44
2023-03-04T05:40:14.956Z,8.44
2023-03-04T05:42:41.393Z,8.43
2023-03-04T05:45:08.457Z,8.42
2023-03-04T05:47:34.887Z,8.41
2023-03-04T05:50:01.332Z,8.40
2023-03-04T05:52:28.964Z,8.39
2023-03-04T05:54:55.473Z,8.37
2023-03-04T05:57:22.039Z,8.38
2023-03-04T05:59:50.046Z,8.36
2023-03-04T06:02:16.643Z,8.33
2023-03-04T06:04:43.162Z,8.34
2023-03-04T06:07:09.653Z,8.33
2023-03-04T06:09:36.198Z,8.32
2023-03-04T06:12:02.762Z,8.31
2023-03-04T06:14:29.318Z,8.31
2023-03-04T06:16:55.867Z,8.29
2023-03-04T06:19:22.753Z,8.30
2023-03-04T06:21:49.185Z,8.54
2023-03-04T06:24:15.736Z,8.30
2023-03-04T06:26:42.167Z,8.28
2023-03-04T06:29:09.013Z,8.28
2023-03-04T06:31:35.453Z,8.51
2023-03-04T06:34:01.911Z,8.29
2023-03-04T06:36:28.426Z,8.27
2023-03-04T06:38:54.960Z,8.27
2023-03-04T06:41:21.565Z,8.26
2023-03-04T06:43:48.033Z,8.26
2023-03-04T06:46:14.525Z,8.25
2023-03-04T06:48:41.006Z,8.25
2023-03-04T06:51:09.394Z,8.25
2023-03-04T06:53:36.229Z,8.23
2023-03-04T06:56:02.658Z,8.49
2023-03-04T06:58:29.163Z,8.28
2023-03-04T07:00:55.766Z,8.27
2023-03-04T07:03:24.661Z,8.26
2023-03-04T07:05:51.191Z,8.25
2023-03-04T07:08:17.674Z,8.26
2023-03-04T07:10:44.174Z,8.26
2023-03-04T07:13:10.683Z,8.27
2023-03-04T07:15:37.824Z,8.27
2023-03-04T07:18:04.364Z,8.27
2023-03-04T07:20:31.839Z,8.29
2023-03-04T07:22:58.330Z,8.31
2023-03-04T07:25:24.804Z,8.33
2023-03-04T07:27:51.277Z,8.34
2023-03-04T07:30:17.990Z,8.38
2023-03-04T07:32:44.521Z,8.43
2023-03-04T07:35:11.059Z,8.49
2023-03-04T07:37:37.804Z,8.58
2023-03-04T07:40:04.634Z,8.65
2023-03-04T07:42:31.034Z,8.93
2023-03-04T07:44:57.849Z,8.80
2023-03-04T07:47:24.280Z,9.06
2023-03-04T07:49:50.864Z,8.87
2023-03-04T07:52:17.381Z,8.86
2023-03-04T07:54:43.849Z,8.86
2023-03-04T07:57:10.349Z,8.85
2023-03-04T07:59:36.826Z,8.84
2023-03-04T08:02:03.326Z,8.84
2023-03-04T08:04:29.848Z,8.83
2023-03-04T08:06:56.370Z,8.82
2023-03-04T08:09:22.954Z,8.82
2023-03-04T08:11:49.522Z,8.81
2023-03-04T08:14:16.128Z,8.80
2023-03-04T08:16:42.604Z,8.76
2023-03-04T08:19:09.564Z,8.80
2023-03-04T08:21:38.913Z,8.81
2023-03-04T08:24:08.965Z,8.82
2023-03-04T08:26:41.408Z,8.87
2023-03-04T08:29:10.313Z,8.85
2023-03-04T08:31:37.271Z,8.86
2023-03-04T08:34:07.629Z,8.88
2023-03-04T08:36:34.734Z,8.89
2023-03-04T08:39:04.261Z,8.92
2023-03-04T08:41:30.787Z,8.95
2023-03-04T08:43:57.457Z,8.98
2023-03-04T08:46:23.947Z,9.01
2023-03-04T08:48:50.401Z,9.07
2023-03-04T08:51:17.298Z,9.08
2023-03-04T08:53:44.311Z,9.10
2023-03-04T08:56:11.238Z,9.12
2023-03-04T08:58:37.788Z,9.15
2023-03-04T09:01:05.238Z,9.17
2023-03-04T09:03:31.772Z,9.18
2023-03-04T09:05:58.338Z,9.20
2023-03-04T09:08:25.325Z,9.20
2023-03-04T09:10:54.034Z,9.21
2023-03-04T09:13:21.694Z,9.19
2023-03-04T09:15:51.285Z,9.21
2023-03-04T09:18:19.744Z,9.21
2023-03-04T09:20:46.914Z,9.21
2023-03-04T09:23:14.361Z,9.23
2023-03-04T09:25:41.995Z,9.25
2023-03-04T09:28:08.524Z,9.26
2023-03-04T09:30:35.537Z,9.29
2023-03-04T09:33:02.128Z,9.30
2023-03-04T09:35:30.107Z,9.32
2023-03-04T09:37:58.008Z,9.32
2023-03-04T09:40:46.712Z,9.46
2023-03-04T09:43:22.629Z,9.44
2023-03-04T09:45:56.603Z,9.45
2023-03-04T09:48:27.539Z,9.45
2023-03-04T09:51:11.061Z,9.49
2023-03-04T09:53:45.644Z,9.53
2023-03-04T09:56:14.356Z,9.49
2023-03-04T09:58:49.632Z,9.53
2023-03-04T10:01:42.700Z,9.61
2023-03-04T10:04:22.286Z,9.59
2023-03-04T10:06:54.501Z,9.56
2023-03-04T10:09:45.832Z,9.63
2023-03-04T10:12:15.252Z,9.60
2023-03-04T10:14:51.438Z,9.64
2023-03-04T10:17:34.530Z,9.65
2023-03-04T10:20:11.269Z,9.66
2023-03-04T10:22:49.804Z,9.68
2023-03-04T10:25:25.363Z,9.64
2023-03-04T10:27:56.485Z,9.63
2023-03-04T10:30:45.094Z,9.69
2023-03-04T10:33:17.233Z,9.64
2023-03-04T10:35:49.507Z,9.62
2023-03-04T10:38:16.604Z,9.62
2023-03-04T10:40:44.592Z,9.66
2023-03-04T10:43:20.191Z,9.73
2023-03-04T10:45:48.987Z,9.75
2023-03-04T10:48:27.546Z,9.86
2023-03-04T10:50:54.881Z,9.83
2023-03-04T10:53:33.615Z,9.89
2023-03-04T10:56:00.395Z,9.85
2023-03-04T10:58:26.770Z,10.12
2023-03-04T11:01:03.826Z,9.97
2023-03-04T11:03:31.970Z,9.96
2023-03-04T11:06:11.667Z,10.00
2023-03-04T11:08:41.063Z,10.01
2023-03-04T11:11:44.478Z,10.20
2023-03-04T11:14:36.839Z,10.26
2023-03-04T11:17:15.701Z,10.28
2023-03-04T11:19:45.418Z,10.28
2023-03-04T11:22:16.782Z,10.34
2023-03-04T11:24:43.779Z,10.38
2023-03-04T11:27:20.766Z,10.48
2023-03-04T11:29:58.216Z,10.47
2023-03-04T11:32:28.800Z,10.54
2023-03-04T11:35:21.395Z,10.57
2023-03-04T11:38:02.523Z,10.59
2023-03-04T11:40:38.650Z,10.62
2023-03-04T11:43:17.869Z,10.64
2023-03-04T11:45:56.142Z,10.65
2023-03-04T11:48:46.735Z,10.66
2023-03-04T11:51:19.360Z,10.66
2023-03-04T11:54:07.252Z,10.72
2023-03-04T11:56:43.256Z,10.91
2023-03-04T11:59:20.375Z,10.80
2023-03-04T12:02:11.198Z,10.87
2023-03-04T12:04:59.855Z,10.88
2023-03-04T12:07:40.070Z,10.94
2023-03-04T12:10:18.405Z,11.05
2023-03-04T12:13:09.594Z,11.17
2023-03-04T12:16:11.487Z,11.23
2023-03-04T12:18:48.729Z,11.23
2023-03-04T12:21:33.740Z,11.34
2023-03-04T12:24:27.896Z,11.25
2023-03-04T12:27:19.640Z,11.19
2023-03-04T12:30:20.433Z,11.21
2023-03-04T12:33:05.253Z,11.14
2023-03-04T12:35:52.514Z,11.15
2023-03-04T12:38:32.216Z,11.06
2023-03-04T12:40:58.594Z,11.02
2023-03-04T12:43:45.906Z,11.05
2023-03-04T12:46:24.779Z,11.12
2023-03-04T12:49:09.124Z,11.12
2023-03-04T12:51:40.425Z,11.12
2023-03-04T12:54:39.010Z,11.08
2023-03-04T12:57:13.588Z,11.07
2023-03-04T13:00:09.140Z,11.12
2023-03-04T13:02:59.909Z,11.06
2023-03-04T13:05:35.460Z,11.06
2023-03-04T13:08:23.562Z,11.02
2023-03-04T13:10:51.461Z,10.97
2023-03-04T13:13:37.270Z,11.06
2023-03-04T13:16:29.368Z,11.06
2023-03-04T13:18:55.952Z,10.88
2023-03-04T13:21:25.695Z,10.87
2023-03-04T13:23:53.614Z,10.80
2023-03-04T13:26:35.260Z,10.79
2023-03-04T13:29:13.891Z,10.81
2023-03-04T13:31:59.661Z,10.81
2023-03-04T13:34:47.397Z,10.82
2023-03-04T13:37:34.631Z,10.87
2023-03-04T13:40:29.535Z,10.95
2023-03-04T13:42:56.123Z,10.93
2023-03-04T13:45:37.218Z,11.06
2023-03-04T13:48:23.164Z,11.10
2023-03-04T13:50:51.582Z,11.12
2023-03-04T13:53:40.789Z,11.26
2023-03-04T13:56:25.378Z,11.25
2023-03-04T13:59:04.140Z,11.21
2023-03-04T14:01:32.922Z,11.13
2023-03-04T14:04:00.469Z,11.08
2023-03-04T14:06:29.718Z,11.05
2023-03-04T14:08:57.316Z,10.99
2023-03-04T14:11:41.756Z,11.00
2023-03-04T14:14:16.792Z,10.94
2023-03-04T14:16:52.609Z,10.87
2023-03-04T14:19:36.070Z,10.88
2023-03-04T14:22:02.805Z,10.77
2023-03-04T14:24:30.996Z,11.03
2023-03-04T14:27:11.623Z,10.82
2023-03-04T14:29:38.165Z,10.74
2023-03-04T14:32:05.815Z,10.72
2023-03-04T14:34:36.510Z,10.73
2023-03-04T14:37:15.549Z,10.66
2023-03-04T14:39:43.341Z,10.65
2023-03-04T14:42:14.233Z,10.65
2023-03-04T14:44:48.809Z,10.63
2023-03-04T14:47:30.569Z,10.67
2023-03-04T14:49:57.505Z,10.57
2023-03-04T14:52:39.639Z,10.62
2023-03-04T14:55:15.202Z,10.62
2023-03-04T14:57:44.129Z,10.55
2023-03-04T15:00:22.646Z,10.61
2023-03-04T15:02:54.552Z,10.54
2023-03-04T15:05:28.798Z,10.56
2023-03-04T15:07:58.039Z,10.55
2023-03-04T15:10:35.394Z,10.53
2023-03-04T15:13:03.957Z,10.77
2023-03-04T15:15:42.664Z,10.53
2023-03-04T15:18:30.058Z,10.57
2023-03-04T15:20:58.425Z,10.44
2023-03-04T15:23:26.073Z,10.39
2023-03-04T15:26:04.573Z,10.43
2023-03-04T15:28:37.014Z,10.38
2023-03-04T15:31:05.123Z,10.27
2023-03-04T15:33:32.012Z,10.24
2023-03-04T15:36:01.963Z,10.22
2023-03-04T15:38:29.881Z,10.17
2023-03-04T15:40:59.574Z,10.12
2023-03-04T15:43:26.210Z,10.10
2023-03-04T15:45:53.583Z,10.08
2023-03-04T15:48:20.697Z,10.04
2023-03-04T15:50:59.233Z,10.09
2023-03-04T15:53:33.045Z,10.04
2023-03-04T15:56:00.656Z,9.94
2023-03-04T15:58:27.239Z,9.90
2023-03-04T16:00:53.825Z,9.90
2023-03-04T16:03:24.091Z,9.87
2023-03-04T16:05:51.940Z,9.83
2023-03-04T16:08:21.511Z,9.83
2023-03-04T16:10:48.613Z,9.80
2023-03-04T16:13:18.086Z,9.78
2023-03-04T16:15:44.894Z,9.75
2023-03-04T16:20:47.441Z,9.76
2023-03-04T16:23:21.794Z,9.73
2023-03-04T16:25:51.272Z,9.66
2023-03-04T16:28:18.107Z,9.60
2023-03-04T16:30:44.584Z,9.87
2023-03-04T16:33:11.580Z,9.56
2023-03-04T16:35:39.603Z,9.52
2023-03-04T16:38:17.205Z,9.51
2023-03-04T16:40:43.750Z,9.43
2023-03-04T16:43:13.177Z,9.42
2023-03-04T16:45:40.308Z,9.34
2023-03-04T16:48:06.861Z,9.31
2023-03-04T16:50:36.159Z,9.31
2023-03-04T16:53:03.794Z,9.24
2023-03-04T16:55:31.669Z,9.23
2023-03-04T16:57:59.048Z,9.18
2023-03-04T17:00:28.246Z,9.18
2023-03-04T17:02:57.619Z,9.15
2023-03-04T17:05:27.088Z,9.12
2023-03-04T17:07:53.676Z,9.09
2023-03-04T17:10:20.828Z,9.09
2023-03-04T17:12:47.609Z,9.06
2023-03-04T17:15:14.577Z,9.31
2023-03-04T17:17:42.759Z,9.05
2023-03-04T17:20:13.328Z,9.03
2023-03-04T17:22:40.163Z,8.97
2023-03-04T17:25:07.088Z,9.23
2023-03-04T17:27:33.621Z,8.95
2023-03-04T22:32:36.139Z,7.33
2023-03-04T22:35:02.812Z,7.29
2023-03-04T22:37:29.289Z,7.28
2023-03-04T22:39:57.116Z,7.28
2023-03-04T22:42:23.571Z,7.26
2023-03-04T22:44:50.018Z,7.27
2023-03-04T22:47:16.565Z,7.27
2023-03-04T22:49:43.065Z,7.29
2023-03-04T22:52:09.593Z,7.30
2023-03-04T22:54:36.024Z,7.31
2023-03-04T22:57:02.471Z,7.32
2023-03-04T22:59:28.947Z,7.33
2023-03-04T23:01:57.156Z,7.35
2023-03-04T23:04:23.895Z,7.32
2023-03-04T23:06:50.346Z,7.34
2023-03-04T23:09:16.770Z,7.35
2023-03-04T23:11:43.467Z,7.34
2023-03-04T23:14:11.644Z,7.36
2023-03-04T23:16:43.157Z,7.36
2023-03-04T23:19:15.244Z,7.39
2023-03-04T23:21:42.478Z,7.34
2023-03-04T23:24:10.675Z,7.32
2023-03-04T23:26:39.937Z,7.36
2023-03-04T23:29:09.261Z,7.35
2023-03-04T23:31:36.328Z,7.33
2023-03-04T23:34:03.882Z,7.33
2023-03-04T23:36:36.045Z,7.37
2023-03-04T23:39:03.608Z,7.33
2023-03-04T23:41:31.021Z,7.32
2023-03-04T23:43:59.032Z,7.33
2023-03-04T23:46:26.856Z,7.30
2023-03-04T23:48:54.166Z,7.30
2023-03-04T23:51:23.927Z,7.31
2023-03-04T23:53:50.422Z,7.29
2023-03-04T23:56:23.197Z,7.34
2023-03-04T23:58:50.466Z,7.27
